Terminal Aerodrome Forecast
Issued by NWS Cleveland, OH

Home | Current Version | Previous Version | Text Only | Print | Product List | Glossary On
Versions: 1 2 3 4 5 6 7 8 9 10 11 12 13 14 15 16 17 18 19 20 21 22 23 24 25 26 27 28 29 30 31
418
FTUS41 KCLE 290257 AAB
TAFCLE
TAF AMD
KCLE 290257Z 2903/3006 01006KT P6SM OVC012
      TEMPO 2903/2905 -SHRA
     FM291000 02005KT 4SM -DZ BR OVC012
     FM291200 02006KT P6SM OVC015
     FM300300 36004KT P6SM OVC015=

USA.gov is the U.S. government's official web portal to all federal, state and local government web resources and services.